createdAt,value
2019-04-06T00:02:30.197Z,9.73
2019-04-06T00:04:59.827Z,9.79
2019-04-06T00:07:29.934Z,9.69
2019-04-06T00:09:59.824Z,9.54
2019-04-06T00:12:29.905Z,9.61
2019-04-06T00:14:59.812Z,9.63
2019-04-06T00:17:29.898Z,9.64
2019-04-06T00:19:59.741Z,9.60
2019-04-06T00:22:29.495Z,9.63
2019-04-06T00:24:59.368Z,9.67
2019-04-06T00:27:29.326Z,9.72
2019-04-06T00:29:59.128Z,9.78
2019-04-06T00:32:35.853Z,9.76
2019-04-06T00:35:06.110Z,9.71
2019-04-06T00:37:36.005Z,9.72
2019-04-06T00:40:06.316Z,9.70
2019-04-06T00:42:36.166Z,9.66
2019-04-06T00:45:06.409Z,9.60
2019-04-06T00:47:36.184Z,9.65
2019-04-06T00:50:06.638Z,9.64
2019-04-06T00:52:36.639Z,9.65
2019-04-06T00:55:06.580Z,9.63
2019-04-06T00:57:36.592Z,9.59
2019-04-06T01:00:06.678Z,9.58
2019-04-06T01:02:36.631Z,9.56
2019-04-06T01:05:07.362Z,9.62
2019-04-06T01:07:37.260Z,9.59
2019-04-06T01:10:07.649Z,9.58
2019-04-06T01:12:37.555Z,9.57
2019-04-06T01:15:07.650Z,9.62
2019-04-06T01:17:37.614Z,9.66
2019-04-06T01:20:08.096Z,9.58
2019-04-06T01:22:37.914Z,9.52
2019-04-06T01:25:08.174Z,9.39
2019-04-06T01:27:38.151Z,9.40
2019-04-06T01:30:08.769Z,9.39
2019-04-06T01:32:38.630Z,9.21
2019-04-06T01:35:08.801Z,9.26
2019-04-06T01:37:38.731Z,9.21
2019-04-06T01:40:09.501Z,9.10
2019-04-06T01:42:39.292Z,9.16
2019-04-06T01:45:09.197Z,9.20
2019-04-06T01:47:39.054Z,9.14
2019-04-06T01:50:09.383Z,9.16
2019-04-06T01:52:39.252Z,9.21
2019-04-06T01:55:09.095Z,9.23
2019-04-06T01:57:39.074Z,9.27
2019-04-06T02:00:11.886Z,9.30
2019-04-06T02:02:43.907Z,9.32
2019-04-06T02:05:14.095Z,9.28
2019-04-06T02:07:43.873Z,9.28
2019-04-06T02:10:14.001Z,9.44
2019-04-06T02:12:43.906Z,9.45
2019-04-06T02:15:14.284Z,9.45
2019-04-06T02:17:44.144Z,9.43
2019-04-06T02:20:14.169Z,9.37
2019-04-06T02:22:44.096Z,9.40
2019-04-06T02:25:14.011Z,9.35
2019-04-06T02:27:43.724Z,9.38
2019-04-06T02:30:40.184Z,9.32
2019-04-06T02:33:26.957Z,9.22
2019-04-06T02:36:13.259Z,9.25
2019-04-06T02:39:05.001Z,9.26
2019-04-06T02:41:50.031Z,9.28
2019-04-06T02:44:19.805Z,9.23
2019-04-06T02:46:49.810Z,9.16
2019-04-06T02:49:19.673Z,9.13
2019-04-06T02:51:49.452Z,9.07
2019-04-06T02:54:19.256Z,8.98
2019-04-06T02:56:49.183Z,9.06
2019-04-06T02:59:19.246Z,9.06
2019-04-06T03:01:49.033Z,9.11
2019-04-06T03:04:19.138Z,9.07
2019-04-06T03:06:49.156Z,9.05
2019-04-06T03:09:19.107Z,9.06
2019-04-06T03:11:49.038Z,9.10
2019-04-06T03:14:19.274Z,9.14
2019-04-06T03:16:49.011Z,9.10
2019-04-06T03:19:18.770Z,9.09
2019-04-06T03:21:48.539Z,9.11
2019-04-06T03:24:18.365Z,9.14
2019-04-06T03:26:59.827Z,9.16
2019-04-06T03:29:19.696Z,9.25
2019-04-06T03:31:49.548Z,9.20
2019-04-06T03:34:21.614Z,9.33
2019-04-06T03:36:51.125Z,9.34
2019-04-06T03:39:20.924Z,9.36
2019-04-06T03:41:50.652Z,9.43
2019-04-06T03:44:20.408Z,9.45
2019-04-06T03:46:50.365Z,9.35
2019-04-06T03:49:20.089Z,9.43
2019-04-06T03:51:50.113Z,9.38
2019-04-06T03:54:19.871Z,9.29
2019-04-06T03:56:51.061Z,9.28
2019-04-06T03:59:20.892Z,9.29
2019-04-06T04:01:50.758Z,9.34
2019-04-06T04:04:20.506Z,9.43
2019-04-06T04:06:50.647Z,9.35
2019-04-06T04:09:20.509Z,9.39
2019-04-06T04:11:50.385Z,9.50
2019-04-06T04:14:20.291Z,9.56
2019-04-06T04:16:50.267Z,9.46
2019-04-06T04:19:20.092Z,9.47
2019-04-06T04:21:49.727Z,9.45
2019-04-06T04:24:20.811Z,9.51
2019-04-06T04:26:50.768Z,9.59
2019-04-06T04:29:20.482Z,9.52
2019-04-06T04:31:50.473Z,9.60
2019-04-06T04:34:20.172Z,9.60
2019-04-06T04:36:50.122Z,9.65
2019-04-06T04:39:20.072Z,9.69
2019-04-06T04:41:49.813Z,9.75
2019-04-06T04:44:19.651Z,9.74
2019-04-06T04:46:49.629Z,9.78
2019-04-06T04:49:19.458Z,9.87
2019-04-06T04:51:49.035Z,9.94
2019-04-06T04:54:18.953Z,9.99
2019-04-06T04:56:48.906Z,9.95
2019-04-06T04:59:18.715Z,9.80
2019-04-06T05:01:48.736Z,9.90
2019-04-06T05:04:18.518Z,9.94
2019-04-06T05:06:48.371Z,10.00
2019-04-06T05:09:18.854Z,9.90
2019-04-06T05:11:49.102Z,9.90
2019-04-06T05:14:54.341Z,10.04
2019-04-06T05:17:24.296Z,10.15
2019-04-06T05:19:55.007Z,10.27
2019-04-06T05:22:24.921Z,10.24
2019-04-06T05:24:55.882Z,10.14
2019-04-06T05:27:26.009Z,10.13
2019-04-06T05:29:55.675Z,10.34
2019-04-06T05:32:25.521Z,10.53
2019-04-06T05:34:57.890Z,10.68
2019-04-06T05:37:26.899Z,10.61
2019-04-06T05:39:56.671Z,10.70
2019-04-06T05:42:26.645Z,10.86
2019-04-06T05:44:56.508Z,10.85
2019-04-06T05:47:27.567Z,10.77
2019-04-06T05:49:57.494Z,10.72
2019-04-06T05:52:27.280Z,10.70
2019-04-06T05:54:57.330Z,10.71
2019-04-06T05:57:27.269Z,10.77
2019-04-06T05:59:57.080Z,10.77
2019-04-06T06:02:26.945Z,10.64
2019-04-06T06:04:56.824Z,10.74
2019-04-06T06:07:26.670Z,10.89
2019-04-06T06:09:56.496Z,10.83
2019-04-06T06:12:26.374Z,10.96
2019-04-06T06:14:56.366Z,10.98
2019-04-06T06:17:25.940Z,11.30
2019-04-06T06:19:55.797Z,11.08
2019-04-06T06:22:25.578Z,11.20
2019-04-06T06:24:55.395Z,11.41
2019-04-06T06:27:26.538Z,11.37
2019-04-06T06:29:56.355Z,11.34
2019-04-06T06:32:26.261Z,11.33
2019-04-06T06:34:56.100Z,11.16
2019-04-06T06:37:25.785Z,11.15
2019-04-06T06:39:55.625Z,11.19
2019-04-06T06:42:25.361Z,11.47
2019-04-06T06:44:55.464Z,11.47
2019-04-06T06:47:25.252Z,11.63
2019-04-06T06:49:56.501Z,11.48
2019-04-06T06:52:26.214Z,11.64
2019-04-06T06:54:56.313Z,11.55
2019-04-06T06:57:26.042Z,11.65
2019-04-06T06:59:56.027Z,11.75
2019-04-06T07:02:25.790Z,11.77
2019-04-06T07:04:56.948Z,11.90
2019-04-06T07:07:26.844Z,12.03
2019-04-06T07:10:05.490Z,11.95
2019-04-06T07:12:28.144Z,12.09
2019-04-06T07:14:58.018Z,12.18
2019-04-06T07:17:27.849Z,12.33
2019-04-06T07:19:58.782Z,12.29
2019-04-06T07:22:28.587Z,12.16
2019-04-06T07:24:58.395Z,12.31
2019-04-06T07:27:28.300Z,12.18
2019-04-06T07:29:58.248Z,12.04
2019-04-06T07:32:28.109Z,11.85
2019-04-06T07:34:58.012Z,12.27
2019-04-06T07:37:27.886Z,12.49
2019-04-06T07:39:57.895Z,12.48
2019-04-06T07:42:27.538Z,12.31
2019-04-06T07:44:57.326Z,12.34
2019-04-06T07:47:27.218Z,12.54
2019-04-06T07:49:56.961Z,12.77
2019-04-06T07:52:26.798Z,12.59
2019-04-06T07:54:56.814Z,12.55
2019-04-06T07:57:26.715Z,12.58
2019-04-06T07:59:56.516Z,13.10
2019-04-06T08:02:26.699Z,13.26
2019-04-06T08:04:56.554Z,12.78
2019-04-06T08:07:26.471Z,12.66
2019-04-06T08:09:56.435Z,12.65
2019-04-06T08:12:26.317Z,12.62
2019-04-06T08:14:57.522Z,12.68
2019-04-06T08:17:27.375Z,12.57
2019-04-06T08:19:57.301Z,12.18
2019-04-06T08:22:28.570Z,11.99
2019-04-06T08:24:58.254Z,12.37
2019-04-06T08:27:28.084Z,12.61
2019-04-06T08:29:58.240Z,12.48
2019-04-06T08:32:27.784Z,12.88
2019-04-06T08:34:57.876Z,12.76
2019-04-06T08:37:29.028Z,12.33
2019-04-06T08:39:58.924Z,12.42
2019-04-06T08:42:28.813Z,12.03
2019-04-06T08:44:58.862Z,12.41
2019-04-06T08:47:29.864Z,12.37
2019-04-06T08:49:59.734Z,12.25
2019-04-06T08:52:29.377Z,12.47
2019-04-06T08:54:59.225Z,12.39
2019-04-06T08:57:29.071Z,12.53
2019-04-06T08:59:59.187Z,12.81
2019-04-06T09:02:28.898Z,13.20
2019-04-06T09:04:58.698Z,12.65
2019-04-06T09:07:28.421Z,12.92
2019-04-06T09:09:58.370Z,12.81
2019-04-06T09:12:28.113Z,12.80
2019-04-06T09:14:58.091Z,12.73
2019-04-06T09:17:27.954Z,12.68
2019-04-06T09:19:57.935Z,12.79
2019-04-06T09:22:27.730Z,12.94
2019-04-06T09:24:57.699Z,13.04
2019-04-06T09:27:27.620Z,12.99
2019-04-06T09:29:57.537Z,12.96
2019-04-06T09:32:27.345Z,12.75
2019-04-06T09:34:58.541Z,12.60
2019-04-06T09:37:28.293Z,12.23
2019-04-06T09:39:58.122Z,12.15
2019-04-06T09:42:28.088Z,12.25
2019-04-06T09:45:19.662Z,12.29
2019-04-06T09:47:59.983Z,12.14
2019-04-06T09:50:54.618Z,12.16
2019-04-06T09:53:46.046Z,12.14
2019-04-06T09:56:42.056Z,11.97
2019-04-06T09:59:35.883Z,12.12
2019-04-06T10:02:11.953Z,12.46
2019-04-06T10:05:15.547Z,12.09
2019-04-06T10:07:59.342Z,12.10
2019-04-06T10:10:39.231Z,12.33
2019-04-06T10:13:39.874Z,12.55
2019-04-06T10:16:26.909Z,12.31
2019-04-06T10:19:24.653Z,12.41
2019-04-06T10:22:31.726Z,12.62
2019-04-06T10:25:10.891Z,12.55
2019-04-06T10:27:55.612Z,12.36
2019-04-06T10:30:59.836Z,12.72
2019-04-06T10:33:51.173Z,12.43
2019-04-06T10:36:42.660Z,12.82
2019-04-06T10:39:23.477Z,12.73
2019-04-06T10:42:04.926Z,13.00
2019-04-06T10:45:08.711Z,13.08
2019-04-06T10:48:00.288Z,12.77
2019-04-06T10:50:50.359Z,12.62
2019-04-06T10:53:48.596Z,12.71
2019-04-06T10:56:35.802Z,12.92
2019-04-06T10:59:31.856Z,12.63
2019-04-06T11:02:20.531Z,12.53
2019-04-06T11:05:13.284Z,12.41
2019-04-06T11:08:04.529Z,12.93
2019-04-06T11:10:58.705Z,12.92
2019-04-06T11:13:46.111Z,12.93
2019-04-06T11:16:43.651Z,13.26
2019-04-06T11:19:34.903Z,12.73
2019-04-06T11:22:18.009Z,12.66
2019-04-06T11:25:09.243Z,12.83
2019-04-06T11:28:04.513Z,12.85
2019-04-06T11:30:43.436Z,12.86
2019-04-06T11:33:38.578Z,12.71
2019-04-06T11:36:32.946Z,12.68
2019-04-06T11:39:12.234Z,12.93
2019-04-06T11:42:12.854Z,12.68
2019-04-06T11:45:01.976Z,13.19
2019-04-06T11:47:48.692Z,13.13
2019-04-06T11:50:26.276Z,12.91
2019-04-06T11:53:08.942Z,13.33
2019-04-06T11:55:49.471Z,13.69
2019-04-06T11:58:33.609Z,13.46
2019-04-06T12:01:34.634Z,13.73
2019-04-06T12:04:32.847Z,13.80
2019-04-06T12:07:20.777Z,13.26
2019-04-06T12:10:03.024Z,13.22
2019-04-06T12:13:06.913Z,13.40
2019-04-06T12:15:55.480Z,12.98
2019-04-06T12:18:41.594Z,13.38
2019-04-06T12:21:35.916Z,13.41
2019-04-06T12:24:25.100Z,13.55
2019-04-06T12:27:29.633Z,13.17
2019-04-06T12:30:42.004Z,13.29
2019-04-06T12:33:29.227Z,13.32
2019-04-06T12:36:20.663Z,13.35
2019-04-06T12:38:58.681Z,13.12
2019-04-06T12:41:53.784Z,13.58
2019-04-06T12:44:39.087Z,13.91
2019-04-06T12:47:39.541Z,13.64
2019-04-06T12:50:18.403Z,13.40
2019-04-06T12:53:09.351Z,13.89
2019-04-06T12:56:05.069Z,13.58
2019-04-06T12:59:03.003Z,14.12
2019-04-06T13:01:57.981Z,14.50
2019-04-06T13:04:53.360Z,14.23
2019-04-06T13:07:40.362Z,13.95
2019-04-06T13:10:35.486Z,14.10
2019-04-06T13:13:17.346Z,13.44
2019-04-06T13:16:05.909Z,14.00
2019-04-06T13:18:41.683Z,13.88
2019-04-06T13:21:47.079Z,14.35
2019-04-06T13:24:41.603Z,14.51
2019-04-06T13:27:26.460Z,14.17
2019-04-06T13:30:08.045Z,14.52
2019-04-06T13:32:57.298Z,15.44
2019-04-06T13:35:36.552Z,14.66
2019-04-06T13:38:36.101Z,14.39
2019-04-06T13:41:25.489Z,14.32
2019-04-06T13:44:05.137Z,14.57
2019-04-06T13:46:48.913Z,15.30
2019-04-06T13:49:36.391Z,15.95
2019-04-06T13:52:15.198Z,14.48
2019-04-06T13:55:02.306Z,14.12
2019-04-06T13:57:54.537Z,14.11
2019-04-06T14:00:30.574Z,14.99
2019-04-06T14:03:15.815Z,14.64
2019-04-06T14:06:22.800Z,14.76
2019-04-06T14:09:12.123Z,14.38
2019-04-06T14:12:04.751Z,15.17
2019-04-06T14:14:47.911Z,15.32
2019-04-06T14:17:35.007Z,14.74
2019-04-06T14:20:33.042Z,15.02
2019-04-06T14:23:37.218Z,14.90
2019-04-06T14:26:23.129Z,15.02
2019-04-06T14:28:59.837Z,14.51
2019-04-06T14:31:45.277Z,14.24
2019-04-06T14:34:49.128Z,14.50
2019-04-06T14:37:36.522Z,13.90
2019-04-06T14:40:30.457Z,13.99
2019-04-06T14:43:22.478Z,13.45
2019-04-06T14:46:08.885Z,12.98
2019-04-06T14:48:51.160Z,12.97
2019-04-06T14:51:28.160Z,12.86
2019-04-06T14:54:18.439Z,12.65
2019-04-06T14:57:10.205Z,12.76
2019-04-06T15:00:12.039Z,12.52
2019-04-06T15:03:09.617Z,11.78
2019-04-06T15:05:57.236Z,11.85
2019-04-06T15:09:01.129Z,11.67
2019-04-06T15:11:47.695Z,11.64
2019-04-06T15:14:36.369Z,11.47
2019-04-06T15:17:21.779Z,11.41
2019-04-06T15:20:15.003Z,11.56
2019-04-06T15:23:09.636Z,11.47
2019-04-06T15:25:47.999Z,11.24
2019-04-06T15:28:45.937Z,11.14
2019-04-06T15:31:27.981Z,11.04
2019-04-06T15:34:12.856Z,11.06
2019-04-06T15:36:55.602Z,11.01
2019-04-06T15:39:43.437Z,11.18
2019-04-06T15:42:24.764Z,11.07
2019-04-06T15:45:13.485Z,10.74
2019-04-06T15:48:08.274Z,10.82
2019-04-06T15:51:04.027Z,10.69
2019-04-06T15:53:52.644Z,10.56
2019-04-06T15:56:32.038Z,10.52
2019-04-06T15:59:11.305Z,10.55
2019-04-06T16:01:59.107Z,10.49
2019-04-06T16:04:33.611Z,10.40
2019-04-06T16:07:15.663Z,10.32
2019-04-06T16:10:11.310Z,10.22
2019-04-06T16:13:04.460Z,10.12
2019-04-06T16:16:08.292Z,10.13
2019-04-06T16:18:49.726Z,9.99
2019-04-06T16:21:37.609Z,9.98
2019-04-06T16:24:19.207Z,9.95
2019-04-06T16:27:10.640Z,9.80
2019-04-06T16:30:17.894Z,9.80
2019-04-06T16:33:05.516Z,9.75
2019-04-06T16:36:06.565Z,9.85
2019-04-06T16:38:58.470Z,9.86
2019-04-06T16:41:38.856Z,9.95
2019-04-06T16:44:33.110Z,9.90
2019-04-06T16:47:22.910Z,9.90
2019-04-06T16:50:18.101Z,9.91
2019-04-06T16:53:05.969Z,9.91
2019-04-06T16:56:06.806Z,9.88
2019-04-06T16:58:58.479Z,9.88
2019-04-06T17:01:52.205Z,9.70
2019-04-06T17:04:36.478Z,9.78
2019-04-06T17:07:21.493Z,9.80
2019-04-06T17:10:15.876Z,9.67
2019-04-06T17:13:06.401Z,9.65
2019-04-06T17:15:42.698Z,9.69
2019-04-06T17:18:30.407Z,9.73
2019-04-06T17:21:31.586Z,9.68
2019-04-06T17:24:24.923Z,9.69
2019-04-06T17:27:16.303Z,9.66
2019-04-06T17:29:58.841Z,9.75
2019-04-06T17:32:38.170Z,9.80
2019-04-06T17:35:27.553Z,9.75
2019-04-06T17:38:22.623Z,9.76
2019-04-06T17:41:02.777Z,9.82
2019-04-06T17:43:47.049Z,9.89
2019-04-06T17:46:38.464Z,9.74
2019-04-06T17:49:29.754Z,9.65
2019-04-06T17:52:24.186Z,9.77
2019-04-06T17:55:04.886Z,9.85
2019-04-06T17:57:52.270Z,9.88
2019-04-06T18:00:38.877Z,9.89
2019-04-06T18:03:18.233Z,9.83
2019-04-06T18:06:05.296Z,9.84
2019-04-06T18:08:52.745Z,9.88
2019-04-06T18:11:30.826Z,9.92
2019-04-06T18:14:00.805Z,9.99
2019-04-06T18:16:33.726Z,10.03
2019-04-06T18:19:03.415Z,10.00
2019-04-06T18:21:33.366Z,10.04
2019-04-06T18:24:03.639Z,9.97
2019-04-06T18:26:33.348Z,9.99
2019-04-06T18:29:03.162Z,10.01
2019-04-06T18:31:58.142Z,10.01
2019-04-06T18:34:28.525Z,10.09
2019-04-06T18:37:35.766Z,9.93
2019-04-06T18:40:12.409Z,10.04
2019-04-06T18:42:43.411Z,10.11
2019-04-06T18:45:13.531Z,10.14
2019-04-06T18:47:44.492Z,10.18
2019-04-06T18:50:14.821Z,10.18
2019-04-06T18:52:44.769Z,10.15
2019-04-06T18:55:14.939Z,10.15
2019-04-06T18:57:45.149Z,10.15
2019-04-06T19:00:15.408Z,10.00
2019-04-06T19:02:48.303Z,10.01
2019-04-06T19:05:19.739Z,10.10
2019-04-06T19:07:49.835Z,10.05
2019-04-06T19:10:20.312Z,10.00
2019-04-06T19:12:50.725Z,10.04
2019-04-06T19:15:20.870Z,10.02
2019-04-06T19:17:50.633Z,10.02
2019-04-06T19:20:21.307Z,9.96
2019-04-06T19:22:51.244Z,9.94
2019-04-06T19:25:21.803Z,10.03
2019-04-06T19:27:51.911Z,10.03
2019-04-06T19:30:21.941Z,10.06
2019-04-06T19:32:52.304Z,10.04
2019-04-06T19:35:22.397Z,10.09
2019-04-06T19:37:52.102Z,10.07
2019-04-06T19:40:22.586Z,10.09
2019-04-06T19:42:52.393Z,10.12
2019-04-06T19:45:23.289Z,10.15
2019-04-06T19:47:53.093Z,10.18
2019-04-06T19:50:23.015Z,10.22
2019-04-06T19:52:52.999Z,10.18
2019-04-06T19:55:23.000Z,10.12
2019-04-06T19:57:53.936Z,10.26
2019-04-06T20:00:23.930Z,10.34
2019-04-06T20:02:53.998Z,10.28
2019-04-06T20:05:24.071Z,10.24
2019-04-06T20:07:54.053Z,10.23
2019-04-06T20:10:24.062Z,9.90
2019-04-06T20:12:53.992Z,9.75
2019-04-06T20:15:23.725Z,9.96
2019-04-06T20:17:53.819Z,10.09
2019-04-06T20:20:23.907Z,9.97
2019-04-06T20:22:53.733Z,9.99
2019-04-06T20:25:23.972Z,10.15
2019-04-06T20:27:55.434Z,10.18
2019-04-06T20:30:25.682Z,10.21
2019-04-06T20:32:55.953Z,10.12
2019-04-06T20:35:27.120Z,10.10
2019-04-06T20:37:58.121Z,10.14
2019-04-06T20:40:27.907Z,10.14
2019-04-06T20:42:57.787Z,10.09
2019-04-06T20:45:28.431Z,10.15
2019-04-06T20:47:58.535Z,10.25
2019-04-06T20:50:29.905Z,10.27
2019-04-06T20:52:59.548Z,10.24
2019-04-06T20:55:29.706Z,10.26
2019-04-06T20:57:59.744Z,10.26
2019-04-06T21:00:29.799Z,10.18
2019-04-06T21:02:59.604Z,10.12
2019-04-06T21:05:29.380Z,10.21
2019-04-06T21:07:59.291Z,10.28
2019-04-06T21:10:29.246Z,10.26
2019-04-06T21:12:59.983Z,9.81
2019-04-06T21:15:29.925Z,9.76
2019-04-06T21:17:59.913Z,9.68
2019-04-06T21:20:30.079Z,9.71
2019-04-06T21:23:00.135Z,9.56
2019-04-06T21:25:30.209Z,9.50
2019-04-06T21:28:00.021Z,9.23
2019-04-06T21:30:30.068Z,9.36
2019-04-06T21:32:59.977Z,9.53
2019-04-06T21:35:30.098Z,9.55
2019-04-06T21:37:59.984Z,9.54
2019-04-06T21:40:29.759Z,9.31
2019-04-06T21:43:00.034Z,8.99
2019-04-06T21:45:30.053Z,8.99
2019-04-06T21:48:00.435Z,8.97
2019-04-06T21:50:30.413Z,8.98
2019-04-06T21:53:00.151Z,8.78
2019-04-06T21:55:30.066Z,8.93
2019-04-06T21:57:59.926Z,9.20
2019-04-06T22:00:47.743Z,9.22
2019-04-06T22:03:17.908Z,9.24
2019-04-06T22:05:47.785Z,9.28
2019-04-06T22:08:18.815Z,9.26
2019-04-06T22:10:49.076Z,9.48
2019-04-06T22:13:19.488Z,9.60
2019-04-06T22:15:49.359Z,9.51
2019-04-06T22:18:19.313Z,9.38
2019-04-06T22:20:49.167Z,9.34
2019-04-06T22:23:19.821Z,9.04
2019-04-06T22:25:50.432Z,8.70
2019-04-06T22:28:20.779Z,8.53
2019-04-06T22:30:50.844Z,8.48
2019-04-06T22:33:20.787Z,8.46
2019-04-06T22:35:50.707Z,8.79
2019-04-06T22:38:20.507Z,8.83
2019-04-06T22:40:52.989Z,8.85
2019-04-06T22:43:22.924Z,8.81
2019-04-06T22:45:53.021Z,8.78
2019-04-06T22:48:23.141Z,8.84
2019-04-06T22:50:53.066Z,8.91
2019-04-06T22:53:22.988Z,9.06
2019-04-06T22:55:52.949Z,9.05
2019-04-06T22:58:22.723Z,9.03
2019-04-06T23:00:56.701Z,9.07
2019-04-06T23:03:45.503Z,8.93
2019-04-06T23:06:19.782Z,8.81
2019-04-06T23:08:49.562Z,8.70
2019-04-06T23:11:19.546Z,8.87
2019-04-06T23:13:49.304Z,9.07
2019-04-06T23:16:19.080Z,9.10
2019-04-06T23:18:49.311Z,9.08
2019-04-06T23:21:19.121Z,9.00
2019-04-06T23:23:48.954Z,9.00
2019-04-06T23:26:18.672Z,9.12
2019-04-06T23:28:49.029Z,9.06
2019-04-06T23:31:18.887Z,8.96
2019-04-06T23:33:48.686Z,9.18
2019-04-06T23:36:19.187Z,9.46
2019-04-06T23:38:49.773Z,9.59
2019-04-06T23:41:20.119Z,9.48
2019-04-06T23:43:49.888Z,9.37
2019-04-06T23:46:19.709Z,9.42
2019-04-06T23:48:49.846Z,9.69
2019-04-06T23:51:20.033Z,9.64
2019-04-06T23:53:50.245Z,9.54
2019-04-06T23:56:20.668Z,9.63
2019-04-06T23:58:50.638Z,9.31
